Daytona Beach International Airport
KDAB : now visible

Airfield :











YOU CAN JOIN US ON...

 
LOGIN :

Register | Disclaimer

   EN    FR    IT 

 









Legend :    VFR   Marginal VFR   IFR   Intensive IFR   Very Intensive IFR
Visi :
Ceiling :
>= 8 km
>= 3000ft
5 to 8 km
1000 to 3000 ft
1500m to 5 km
500 to 1000 ft
800 to 1500m
200 to 500 ft
< 800m
< 200 ft
Symbols :   Thunderstorms  Fog  Heavy snow  Heavy precipitations  Wind > 20 kt







- Airport Elevation : 34 ft
- IATA code : DAB


KDAB - Daytona Beach International

CURRENT METAR :
  • 160553Z 30004KT 10SM SCT021 26/24 A2992 RMK AO2 SLP130 T02610233 55002 $

EXPIRED METARs :
  • 160516Z 30006KT 10SM BKN021 A2992 RMK AO2 $
  • 160453Z 34009KT 10SM FEW020 27/24 A2991 RMK AO2 SLP129 T02720244 403110256 $
  • 160353Z 36012KT 10SM FEW020 27/24 A2992 RMK AO2 SLP132 T02720239 $

TAF KDAB
Valid from the 16 at 06:00 until the 17 at 06:00 UTC


160533Z 1606/1706 31006KT P6SM VCSH SCT020 BKN040
TEMPO 1606/1608 BKN020
FM161400 35014G24KT P6SM VCSH SCT030 BKN050
FM170000 02012KT P6SM FEW025
No reported NOTAMs for that airfield.



MET'MAP, your aeronautical weather chart ! - Copyright ORBIFLY December 2007 - Disclaimer

ORBIFLY MET'MAP TEAM :

Programming & Development : Alexandra Zaïnal
Concept & Development : Baudouin d'Aumeries
Co-Development & Prog : Marc-Olivier Méhu
Technical & hardware support : Manuel Goepfert

Contact : metmap@orbifly.com




SOURCES & CREDITS :

   NOAA       Earth
Advisory